sensor_id;sensor_type;location;lat;lon;timestamp;temperature;humidity
3980;DHT22;2004;52.452;13.120;2023-04-19T00:06:32;6.50;99.90
3980;DHT22;2004;52.452;13.120;2023-04-19T00:14:23;6.50;99.90
3980;DHT22;2004;52.452;13.120;2023-04-19T00:22:14;6.50;99.90
3980;DHT22;2004;52.452;13.120;2023-04-19T00:30:05;6.50;99.70
3980;DHT22;2004;52.452;13.120;2023-04-19T00:37:56;6.50;98.00
3980;DHT22;2004;52.452;13.120;2023-04-19T00:45:47;6.50;97.00
3980;DHT22;2004;52.452;13.120;2023-04-19T00:53:39;6.60;95.70
3980;DHT22;2004;52.452;13.120;2023-04-19T01:09:11;6.60;92.90
3980;DHT22;2004;52.452;13.120;2023-04-19T01:17:01;6.60;92.60
3980;DHT22;2004;52.452;13.120;2023-04-19T01:24:55;6.60;91.60
3980;DHT22;2004;52.452;13.120;2023-04-19T01:32:45;6.60;91.40
3980;DHT22;2004;52.452;13.120;2023-04-19T01:40:37;6.50;90.90
3980;DHT22;2004;52.452;13.120;2023-04-19T01:48:28;6.40;91.10
3980;DHT22;2004;52.452;13.120;2023-04-19T01:56:19;6.30;91.00
3980;DHT22;2004;52.452;13.120;2023-04-19T02:04:12;6.20;90.80
3980;DHT22;2004;52.452;13.120;2023-04-19T02:12:05;6.10;91.40
3980;DHT22;2004;52.452;13.120;2023-04-19T02:19:56;6.00;91.70
3980;DHT22;2004;52.452;13.120;2023-04-19T02:27:47;5.90;92.10
3980;DHT22;2004;52.452;13.120;2023-04-19T02:35:38;5.80;92.10
3980;DHT22;2004;52.452;13.120;2023-04-19T02:43:29;5.60;92.80
3980;DHT22;2004;52.452;13.120;2023-04-19T02:51:19;5.50;93.50
3980;DHT22;2004;52.452;13.120;2023-04-19T02:59:10;5.40;94.00
3980;DHT22;2004;52.452;13.120;2023-04-19T03:07:03;5.30;94.40
3980;DHT22;2004;52.452;13.120;2023-04-19T03:14:54;5.20;95.10
3980;DHT22;2004;52.452;13.120;2023-04-19T03:22:46;5.10;95.60
3980;DHT22;2004;52.452;13.120;2023-04-19T03:30:37;5.00;96.20
3980;DHT22;2004;52.452;13.120;2023-04-19T03:38:27;4.90;96.70
3980;DHT22;2004;52.452;13.120;2023-04-19T03:46:18;4.70;97.90
3980;DHT22;2004;52.452;13.120;2023-04-19T03:54:08;4.70;98.20
3980;DHT22;2004;52.452;13.120;2023-04-19T04:02:00;4.50;99.10
3980;DHT22;2004;52.452;13.120;2023-04-19T04:09:53;4.40;99.90
3980;DHT22;2004;52.452;13.120;2023-04-19T04:17:43;4.20;99.90
3980;DHT22;2004;52.452;13.120;2023-04-19T04:25:36;4.10;99.90
3980;DHT22;2004;52.452;13.120;2023-04-19T04:33:29;4.10;99.90
3980;DHT22;2004;52.452;13.120;2023-04-19T05:14:13;4.20;99.90
3980;DHT22;2004;52.452;13.120;2023-04-19T05:22:03;4.30;99.90
3980;DHT22;2004;52.452;13.120;2023-04-19T05:29:54;4.30;99.90
3980;DHT22;2004;52.452;13.120;2023-04-19T05:37:45;4.40;99.90
3980;DHT22;2004;52.452;13.120;2023-04-19T05:45:35;4.50;99.90
3980;DHT22;2004;52.452;13.120;2023-04-19T05:53:29;4.70;99.90
3980;DHT22;2004;52.452;13.120;2023-04-19T06:01:20;4.90;99.90
3980;DHT22;2004;52.452;13.120;2023-04-19T06:09:11;5.10;99.90
3980;DHT22;2004;52.452;13.120;2023-04-19T06:17:03;5.30;99.90
3980;DHT22;2004;52.452;13.120;2023-04-19T06:24:53;5.50;99.90
3980;DHT22;2004;52.452;13.120;2023-04-19T06:32:44;5.70;99.90
3980;DHT22;2004;52.452;13.120;2023-04-19T06:40:34;5.80;99.90
3980;DHT22;2004;52.452;13.120;2023-04-19T06:48:26;6.10;99.90
3980;DHT22;2004;52.452;13.120;2023-04-19T06:56:17;6.30;99.90
3980;DHT22;2004;52.452;13.120;2023-04-19T07:04:27;6.50;99.90
3980;DHT22;2004;52.452;13.120;2023-04-19T07:12:18;6.70;99.90
3980;DHT22;2004;52.452;13.120;2023-04-19T07:20:09;7.00;99.90
3980;DHT22;2004;52.452;13.120;2023-04-19T07:28:00;7.20;99.90
3980;DHT22;2004;52.452;13.120;2023-04-19T07:35:50;7.40;99.90
3980;DHT22;2004;52.452;13.120;2023-04-19T07:43:41;7.70;98.40
3980;DHT22;2004;52.452;13.120;2023-04-19T07:51:32;8.00;98.00
3980;DHT22;2004;52.452;13.120;2023-04-19T07:59:22;8.20;94.40
3980;DHT22;2004;52.452;13.120;2023-04-19T08:07:13;8.60;92.90
3980;DHT22;2004;52.452;13.120;2023-04-19T08:15:06;8.90;92.90
3980;DHT22;2004;52.452;13.120;2023-04-19T08:22:58;9.20;91.10
3980;DHT22;2004;52.452;13.120;2023-04-19T08:30:49;9.50;85.10
3980;DHT22;2004;52.452;13.120;2023-04-19T08:38:39;9.80;83.80
3980;DHT22;2004;52.452;13.120;2023-04-19T08:46:31;10.00;75.00
3980;DHT22;2004;52.452;13.120;2023-04-19T08:54:22;10.10;74.30
3980;DHT22;2004;52.452;13.120;2023-04-19T09:02:13;10.40;73.90
3980;DHT22;2004;52.452;13.120;2023-04-19T09:10:15;10.60;70.60
3980;DHT22;2004;52.452;13.120;2023-04-19T09:18:08;10.70;71.30
3980;DHT22;2004;52.452;13.120;2023-04-19T09:26:00;10.70;70.00
3980;DHT22;2004;52.452;13.120;2023-04-19T09:33:52;10.70;69.40
3980;DHT22;2004;52.452;13.120;2023-04-19T09:41:51;10.70;68.70
3980;DHT22;2004;52.452;13.120;2023-04-19T09:49:42;10.80;68.80
3980;DHT22;2004;52.452;13.120;2023-04-19T09:57:33;10.90;65.20
3980;DHT22;2004;52.452;13.120;2023-04-19T10:05:24;11.00;66.30
3980;DHT22;2004;52.452;13.120;2023-04-19T10:13:17;11.10;63.90
3980;DHT22;2004;52.452;13.120;2023-04-19T10:21:12;11.20;63.00
3980;DHT22;2004;52.452;13.120;2023-04-19T10:29:05;11.20;60.80
3980;DHT22;2004;52.452;13.120;2023-04-19T10:36:56;11.00;61.30
3980;DHT22;2004;52.452;13.120;2023-04-19T11:01:52;11.70;61.00
3980;DHT22;2004;52.452;13.120;2023-04-19T11:09:44;11.50;61.60
3980;DHT22;2004;52.452;13.120;2023-04-19T11:17:35;11.70;59.60
3980;DHT22;2004;52.452;13.120;2023-04-19T11:25:27;11.90;59.60
3980;DHT22;2004;52.452;13.120;2023-04-19T11:33:22;12.30;61.80
3980;DHT22;2004;52.452;13.120;2023-04-19T11:41:16;12.10;63.50
3980;DHT22;2004;52.452;13.120;2023-04-19T11:49:07;12.10;60.80
3980;DHT22;2004;52.452;13.120;2023-04-19T11:57:04;11.90;63.10
3980;DHT22;2004;52.452;13.120;2023-04-19T12:04:55;11.90;63.60
3980;DHT22;2004;52.452;13.120;2023-04-19T12:12:45;12.30;60.30
3980;DHT22;2004;52.452;13.120;2023-04-19T12:20:43;12.10;60.10
3980;DHT22;2004;52.452;13.120;2023-04-19T12:28:35;11.90;59.40
3980;DHT22;2004;52.452;13.120;2023-04-19T12:36:25;12.00;58.70
3980;DHT22;2004;52.452;13.120;2023-04-19T12:44:17;12.00;59.80
3980;DHT22;2004;52.452;13.120;2023-04-19T12:52:08;12.20;60.90
3980;DHT22;2004;52.452;13.120;2023-04-19T12:59:58;12.20;59.00
3980;DHT22;2004;52.452;13.120;2023-04-19T13:07:49;12.10;60.20
3980;DHT22;2004;52.452;13.120;2023-04-19T13:15:40;12.20;60.20
3980;DHT22;2004;52.452;13.120;2023-04-19T13:23:31;12.20;57.80
3980;DHT22;2004;52.452;13.120;2023-04-19T13:31:23;12.50;59.30
3980;DHT22;2004;52.452;13.120;2023-04-19T13:39:14;12.70;59.80
3980;DHT22;2004;52.452;13.120;2023-04-19T13:47:05;12.90;55.20
3980;DHT22;2004;52.452;13.120;2023-04-19T13:54:56;13.00;53.50
3980;DHT22;2004;52.452;13.120;2023-04-19T14:02:47;12.90;53.80
3980;DHT22;2004;52.452;13.120;2023-04-19T14:10:38;12.70;53.30
3980;DHT22;2004;52.452;13.120;2023-04-19T14:18:29;12.40;54.30
3980;DHT22;2004;52.452;13.120;2023-04-19T14:26:20;12.10;55.00
3980;DHT22;2004;52.452;13.120;2023-04-19T14:34:10;11.90;55.30
3980;DHT22;2004;52.452;13.120;2023-04-19T14:42:01;11.90;57.80
3980;DHT22;2004;52.452;13.120;2023-04-19T14:49:52;11.70;57.90
3980;DHT22;2004;52.452;13.120;2023-04-19T14:57:43;11.70;57.70
3980;DHT22;2004;52.452;13.120;2023-04-19T15:05:34;11.50;58.10
3980;DHT22;2004;52.452;13.120;2023-04-19T15:13:25;11.40;59.80
3980;DHT22;2004;52.452;13.120;2023-04-19T15:21:18;11.20;59.60
3980;DHT22;2004;52.452;13.120;2023-04-19T15:29:09;11.00;62.60
3980;DHT22;2004;52.452;13.120;2023-04-19T15:37:00;10.40;73.20
3980;DHT22;2004;52.452;13.120;2023-04-19T15:44:51;9.70;89.50
3980;DHT22;2004;52.452;13.120;2023-04-19T15:52:42;8.70;96.80
3980;DHT22;2004;52.452;13.120;2023-04-19T16:00:32;7.90;99.90
3980;DHT22;2004;52.452;13.120;2023-04-19T16:08:23;7.40;99.90
3980;DHT22;2004;52.452;13.120;2023-04-19T16:16:13;7.10;99.90
3980;DHT22;2004;52.452;13.120;2023-04-19T16:24:04;6.90;99.90
3980;DHT22;2004;52.452;13.120;2023-04-19T16:31:55;6.80;99.90
3980;DHT22;2004;52.452;13.120;2023-04-19T16:39:46;6.70;99.90
3980;DHT22;2004;52.452;13.120;2023-04-19T16:47:37;6.70;99.90
3980;DHT22;2004;52.452;13.120;2023-04-19T16:55:28;6.60;99.90
3980;DHT22;2004;52.452;13.120;2023-04-19T17:03:20;6.50;99.90
3980;DHT22;2004;52.452;13.120;2023-04-19T17:11:11;6.60;99.90
3980;DHT22;2004;52.452;13.120;2023-04-19T17:19:01;6.60;99.90
3980;DHT22;2004;52.452;13.120;2023-04-19T17:26:52;6.60;99.90
3980;DHT22;2004;52.452;13.120;2023-04-19T17:34:42;6.60;99.90
3980;DHT22;2004;52.452;13.120;2023-04-19T17:42:33;6.60;99.90
3980;DHT22;2004;52.452;13.120;2023-04-19T17:50:23;6.50;99.90
3980;DHT22;2004;52.452;13.120;2023-04-19T17:58:15;6.40;99.90
3980;DHT22;2004;52.452;13.120;2023-04-19T18:06:07;6.30;99.90
3980;DHT22;2004;52.452;13.120;2023-04-19T18:13:59;6.20;99.90
3980;DHT22;2004;52.452;13.120;2023-04-19T18:21:49;6.10;99.90
3980;DHT22;2004;52.452;13.120;2023-04-19T18:29:40;6.00;99.90
3980;DHT22;2004;52.452;13.120;2023-04-19T18:37:31;5.90;99.90
3980;DHT22;2004;52.452;13.120;2023-04-19T18:45:21;6.00;99.90
3980;DHT22;2004;52.452;13.120;2023-04-19T18:53:12;6.00;99.90
3980;DHT22;2004;52.452;13.120;2023-04-19T19:01:03;6.10;99.90
3980;DHT22;2004;52.452;13.120;2023-04-19T19:08:53;6.10;99.90
3980;DHT22;2004;52.452;13.120;2023-04-19T19:16:44;6.20;99.90
3980;DHT22;2004;52.452;13.120;2023-04-19T19:24:35;6.20;99.90
3980;DHT22;2004;52.452;13.120;2023-04-19T19:32:25;6.30;99.90
3980;DHT22;2004;52.452;13.120;2023-04-19T19:40:16;6.30;99.90
3980;DHT22;2004;52.452;13.120;2023-04-19T19:48:07;6.30;99.90
3980;DHT22;2004;52.452;13.120;2023-04-19T19:55:58;6.30;99.90
3980;DHT22;2004;52.452;13.120;2023-04-19T20:03:49;6.40;99.90
3980;DHT22;2004;52.452;13.120;2023-04-19T20:11:41;6.40;99.90
3980;DHT22;2004;52.452;13.120;2023-04-19T20:19:31;6.40;99.90
3980;DHT22;2004;52.452;13.120;2023-04-19T20:27:22;6.40;99.90
3980;DHT22;2004;52.452;13.120;2023-04-19T20:35:12;6.40;99.90
3980;DHT22;2004;52.452;13.120;2023-04-19T20:43:03;6.40;99.90
3980;DHT22;2004;52.452;13.120;2023-04-19T20:50:53;6.40;99.90
3980;DHT22;2004;52.452;13.120;2023-04-19T20:58:44;6.30;99.90
3980;DHT22;2004;52.452;13.120;2023-04-19T21:06:35;6.40;99.90
3980;DHT22;2004;52.452;13.120;2023-04-19T21:14:26;6.30;99.90
3980;DHT22;2004;52.452;13.120;2023-04-19T21:22:20;6.40;99.90
3980;DHT22;2004;52.452;13.120;2023-04-19T21:30:11;6.30;99.90
3980;DHT22;2004;52.452;13.120;2023-04-19T21:38:02;6.40;99.90
3980;DHT22;2004;52.452;13.120;2023-04-19T21:45:52;6.40;99.90
3980;DHT22;2004;52.452;13.120;2023-04-19T21:53:43;6.40;99.90
3980;DHT22;2004;52.452;13.120;2023-04-19T22:01:34;6.40;99.90
3980;DHT22;2004;52.452;13.120;2023-04-19T22:09:24;6.30;99.90
3980;DHT22;2004;52.452;13.120;2023-04-19T22:17:15;6.30;99.90
3980;DHT22;2004;52.452;13.120;2023-04-19T22:25:08;6.20;99.90
3980;DHT22;2004;52.452;13.120;2023-04-19T22:32:58;6.30;99.90
3980;DHT22;2004;52.452;13.120;2023-04-19T22:40:49;6.30;99.90
3980;DHT22;2004;52.452;13.120;2023-04-19T22:48:40;6.30;99.90
3980;DHT22;2004;52.452;13.120;2023-04-19T22:56:30;6.30;99.90
3980;DHT22;2004;52.452;13.120;2023-04-19T23:04:21;6.30;99.90
3980;DHT22;2004;52.452;13.120;2023-04-19T23:12:13;6.40;99.90
3980;DHT22;2004;52.452;13.120;2023-04-19T23:20:06;6.40;99.90
3980;DHT22;2004;52.452;13.120;2023-04-19T23:27:59;6.40;99.90
3980;DHT22;2004;52.452;13.120;2023-04-19T23:35:50;6.50;99.90
3980;DHT22;2004;52.452;13.120;2023-04-19T23:43:40;6.50;99.90
3980;DHT22;2004;52.452;13.120;2023-04-19T23:51:31;6.50;99.90
3980;DHT22;2004;52.452;13.120;2023-04-19T23:59:23;6.50;99.90
